Country
Station

 

Weather  for  Guymon/Guymon Municipal Airport  -  United States    United States

  
17 °C (63 °F)
    
 
 

Current METAR for Guymon/Guymon Municipal Airport is :

KGUY 161853Z AUTO 18017G23KT 10SM CLR 17/00 A2998 RMK AO2 SLP138 T01670000

 

This is a report for Guymon/Guymon Municipal Airport - United States.
 
The report was made 9 minutes ago, at 18:53 UTC .
The wind was blowing at a speed of 8.7 meters per second (19.6 miles per hour) with gusts up to 11.8 meters per second (26.5 miles per hour) from south (180°).
 
The temperature was 17 °C (63 °F)
The atmospheric pressure was 1015 hPa (29.98 inHg).
The sky was clear.
 
The overall visibility was 16.1 kilometers (10.0 miles).
 

 
 
 
 

Country :   A   B   C   D   E   F   G   H   I   J   K   L   M   N   O   P   Q   R   S   T   U   V   W   Y   Z

 

Site Info  |  Disclaimer  |  Credits  |  Privacy
Contact us  |  Add to favorites
© 2013-2018 METARs - All rights reserved